Overview Statistics Trail Chart Weather Telemetry Raw packets
 

This is the latest recevied weather packets stored in our database for station/object W5ALL-WX. If no packets are shown the sender has not sent any weather packets the latest 10 day(s).

<< 100 101 102 103 104 105 106 >>
Time Temp. Humidity Pressure Rain* Wind** Luminosity Snow
1777233597 27.22° C 12% 1007.5 hPa 0 mm - - -
1777233297 26.67° C 12% 1007.7 hPa 0 mm - - -
1777232997 26.67° C 13% 1007.8 hPa 0 mm - - -
1777232697 26.67° C 12% 1007.8 hPa 0 mm - - -
1777225509 25° C 17% 1009.7 hPa 0 mm - - -
1777225209 25° C 16% 1009.8 hPa 0 mm - - -
1777224909 24.44° C 17% 1009.8 hPa 0 mm - - -
1777224609 25° C 17% 1009.8 hPa 0 mm - - -
1777224309 25.56° C 15% 1009.9 hPa 0 mm - - -
1777224009 25.56° C 17% 1009.9 hPa 0 mm - - -
1777223709 25.56° C 18% 1010 hPa 0 mm - - -
1777223411 25° C 18% 1010 hPa 0 mm - - -
1777223109 25° C 17% 1010.1 hPa 0 mm - - -
1777222809 25° C 17% 1010 hPa 0 mm - - -
1777222509 25° C 18% 1009.9 hPa 0 mm - - -
1777222209 25° C 18% 1010 hPa 0 mm - - -
1777221909 25° C 19% 1009.9 hPa 0 mm - - -
1777221609 24.44° C 18% 1010.1 hPa 0 mm - - -
1777221309 24.44° C 19% 1010.1 hPa 0 mm - - -
1777221009 24.44° C 19% 1010.4 hPa 0 mm - - -
1777220709 24.44° C 19% 1010.4 hPa 0 mm - - -
1777220409 23.89° C 19% 1010.3 hPa 0 mm - - -
1777220109 23.33° C 19% 1010.3 hPa 0 mm - - -
1777219809 23.33° C 19% 1010.3 hPa 0 mm - - -
1777219509 23.33° C 20% 1010.3 hPa 0 mm - - -

* Rain latest hour (hover to see other rain measurements)
** Current wind speed in m/s (hover to see current wind gust speed)